Time;durP1;ratioP1;P1;durP2;ratioP2;P2;SDS_P1;SDS_P2;PMS_P1;PMS_P2;Temp;Humidity;BMP_temperature;BMP_pressure;BME280_temperature;BME280_humidity;BME280_pressure;Samples;Min_cycle;Max_cycle;Signal;HPM_P1;HPM_P2
2021/12/03 00:00:34;;;;;;;;;;;6.80;90.90;;;;;;5040628;28;19949;-75
2021/12/03 00:03:00;;;;;;;;;;;6.70;91.00;;;;;;5040152;28;20432;-75
2021/12/03 00:05:26;;;;;;;;;;;6.70;91.10;;;;;;5010186;28;20094;-75
2021/12/03 00:07:51;;;;;;;;;;;6.70;91.10;;;;;;4997098;28;20407;-75
2021/12/03 00:10:21;;;;;;;;;;;6.60;91.10;;;;;;5020483;28;19951;-75
2021/12/03 00:12:47;;;;;;;;;;;6.60;91.00;;;;;;5020211;28;19946;-75
2021/12/03 00:15:13;;;;;;;;;;;6.70;91.00;;;;;;5020619;28;19949;-75
2021/12/03 00:17:39;;;;;;;;;;;6.70;90.80;;;;;;5019921;28;20067;-75
2021/12/03 00:20:06;;;;;;;;;;;6.80;90.70;;;;;;5020504;28;19961;-75
2021/12/03 00:22:32;;;;;;;;;;;6.80;90.50;;;;;;5020163;28;19998;-75
2021/12/03 00:24:57;;;;;;;;;;;6.80;90.40;;;;;;5020026;28;20093;-75
2021/12/03 00:27:23;;;;;;;;;;;6.80;90.20;;;;;;5020057;28;20470;-75
2021/12/03 00:29:48;;;;;;;;;;;6.90;90.10;;;;;;5002197;28;20379;-75
2021/12/03 00:32:14;;;;;;;;;;;6.90;89.80;;;;;;5020286;28;20023;-75
2021/12/03 00:34:39;;;;;;;;;;;6.90;89.60;;;;;;5001918;28;19952;-75
2021/12/03 00:37:05;;;;;;;;;;;6.90;89.40;;;;;;5020255;28;20429;-75
2021/12/03 00:39:30;;;;;;;;;;;6.80;89.30;;;;;;5031569;28;19975;-75
2021/12/03 00:41:59;;;;;;;;;;;6.90;89.40;;;;;;5040556;28;20493;-75
2021/12/03 00:44:26;;;;;;;;;;;6.80;89.40;;;;;;5039623;28;20030;-75
2021/12/03 00:46:52;;;;;;;;;;;6.80;89.40;;;;;;5038261;28;20422;-75
2021/12/03 00:49:17;;;;;;;;;;;6.80;89.30;;;;;;5040406;28;19949;-75
2021/12/03 00:51:43;;;;;;;;;;;6.90;89.20;;;;;;5039880;28;20498;-75
2021/12/03 00:54:09;;;;;;;;;;;6.90;89.20;;;;;;5040030;28;20033;-75
2021/12/03 00:56:34;;;;;;;;;;;6.90;89.10;;;;;;5039645;28;19948;-75
2021/12/03 00:59:00;;;;;;;;;;;6.90;88.90;;;;;;5039975;28;19967;-75
2021/12/03 01:01:25;;;;;;;;;;;6.90;88.90;;;;;;5039744;28;20433;-75
2021/12/03 01:03:52;;;;;;;;;;;6.90;88.70;;;;;;5040182;28;20295;-75
2021/12/03 01:06:17;;;;;;;;;;;6.90;88.80;;;;;;5038885;28;20265;-75
2021/12/03 01:08:43;;;;;;;;;;;6.80;89.20;;;;;;5034315;28;20026;-75
2021/12/03 01:11:09;;;;;;;;;;;6.70;89.50;;;;;;5038217;28;20035;-75
2021/12/03 01:13:35;;;;;;;;;;;6.60;89.70;;;;;;5038808;28;20486;-75
2021/12/03 01:16:01;;;;;;;;;;;6.50;90.10;;;;;;5039064;28;20026;-76
2021/12/03 01:18:27;;;;;;;;;;;6.50;90.30;;;;;;5040201;28;19944;-75
2021/12/03 01:20:53;;;;;;;;;;;6.60;90.40;;;;;;5039043;28;20002;-75
2021/12/03 01:23:18;;;;;;;;;;;6.60;90.40;;;;;;5040297;28;19980;-76
2021/12/03 01:25:44;;;;;;;;;;;6.60;90.30;;;;;;5039257;28;20631;-75
2021/12/03 01:28:11;;;;;;;;;;;6.50;90.30;;;;;;5039274;28;20340;-75
2021/12/03 01:30:37;;;;;;;;;;;6.50;90.40;;;;;;5037906;28;19959;-75
2021/12/03 01:33:05;;;;;;;;;;;6.50;90.40;;;;;;5039500;28;19950;-75
2021/12/03 01:35:31;;;;;;;;;;;6.60;90.30;;;;;;5039598;28;19984;-75
2021/12/03 01:37:56;;;;;;;;;;;6.60;90.30;;;;;;5039374;28;20032;-75
2021/12/03 01:40:24;;;;;;;;;;;6.60;90.30;;;;;;5083839;23;20112;-75
2021/12/03 01:42:50;;;;;;;;;;;6.60;90.20;;;;;;5079380;28;19974;-75
2021/12/03 01:45:17;;;;;;;;;;;6.60;90.10;;;;;;5080248;28;19960;-75
2021/12/03 01:47:44;;;;;;;;;;;6.70;90.10;;;;;;5083420;28;19947;-75
2021/12/03 01:50:10;;;;;;;;;;;6.70;89.90;;;;;;5083392;28;19940;-75
2021/12/03 01:52:36;;;;;;;;;;;6.70;89.80;;;;;;5064558;28;20367;-75
2021/12/03 01:55:03;;;;;;;;;;;6.80;89.50;;;;;;5064987;28;20449;-75
2021/12/03 01:57:29;;;;;;;;;;;6.80;89.30;;;;;;5067252;28;20062;-75
2021/12/03 01:59:54;;;;;;;;;;;6.70;89.30;;;;;;5062897;28;20040;-75
2021/12/03 02:02:20;;;;;;;;;;;6.70;89.40;;;;;;5062765;28;19951;-75
2021/12/03 02:04:45;;;;;;;;;;;6.70;89.50;;;;;;5062696;28;20341;-75
2021/12/03 02:07:11;;;;;;;;;;;6.70;89.60;;;;;;5058718;28;20318;-75
2021/12/03 02:09:37;;;;;;;;;;;6.70;89.60;;;;;;5042554;28;20057;-75
2021/12/03 02:12:02;;;;;;;;;;;6.60;89.80;;;;;;5062602;28;19972;-75
2021/12/03 02:14:28;;;;;;;;;;;6.60;89.90;;;;;;5043995;28;19959;-75
2021/12/03 02:16:54;;;;;;;;;;;6.60;90.10;;;;;;5043803;28;20483;-75
2021/12/03 02:19:19;;;;;;;;;;;6.50;90.30;;;;;;5069317;28;20394;-75
2021/12/03 02:21:45;;;;;;;;;;;6.50;90.40;;;;;;5082214;28;19989;-75
2021/12/03 02:24:11;;;;;;;;;;;6.50;90.60;;;;;;5082300;28;19976;-75
2021/12/03 02:26:36;;;;;;;;;;;6.50;90.90;;;;;;5081832;28;19971;-75
2021/12/03 02:29:02;;;;;;;;;;;6.40;91.20;;;;;;5082392;28;19944;-75
2021/12/03 02:31:28;;;;;;;;;;;6.30;91.50;;;;;;5082164;28;19965;-75
2021/12/03 02:33:54;;;;;;;;;;;6.40;91.70;;;;;;5081045;28;19946;-75
2021/12/03 02:36:21;;;;;;;;;;;6.40;91.80;;;;;;5069686;28;20024;-75
2021/12/03 02:38:47;;;;;;;;;;;6.30;91.80;;;;;;5075971;28;19979;-75
2021/12/03 02:41:14;;;;;;;;;;;6.40;91.90;;;;;;5062064;28;20421;-75
2021/12/03 02:43:39;;;;;;;;;;;6.20;91.90;;;;;;5072059;28;19949;-75
2021/12/03 02:46:05;;;;;;;;;;;6.20;92.00;;;;;;5081900;28;19953;-75
2021/12/03 02:48:32;;;;;;;;;;;6.20;92.00;;;;;;5081796;28;19953;-75
2021/12/03 02:50:58;;;;;;;;;;;6.20;92.20;;;;;;5062518;28;20040;-75
2021/12/03 02:53:23;;;;;;;;;;;6.20;92.30;;;;;;5043624;28;20522;-75
2021/12/03 02:55:50;;;;;;;;;;;6.30;92.30;;;;;;5061129;28;19951;-75
2021/12/03 02:58:15;;;;;;;;;;;6.40;92.30;;;;;;5062113;28;19948;-75
2021/12/03 03:00:41;;;;;;;;;;;6.40;92.20;;;;;;5061988;28;19949;-75
2021/12/03 03:03:07;;;;;;;;;;;6.50;92.00;;;;;;5061465;28;20077;-75
2021/12/03 03:05:32;;;;;;;;;;;6.50;91.90;;;;;;5061671;28;19947;-75
2021/12/03 03:07:58;;;;;;;;;;;6.60;91.70;;;;;;5055567;28;20334;-75
2021/12/03 03:10:28;;;;;;;;;;;6.60;91.50;;;;;;5061520;28;20318;-75
2021/12/03 03:12:55;;;;;;;;;;;6.60;91.30;;;;;;5061174;28;19978;-75
2021/12/03 03:15:21;;;;;;;;;;;6.60;91.20;;;;;;5061134;28;19947;-75
2021/12/03 03:17:47;;;;;;;;;;;6.60;91.10;;;;;;5061121;28;19951;-75
2021/12/03 03:20:13;;;;;;;;;;;6.60;91.10;;;;;;5061045;28;20332;-75
2021/12/03 03:22:39;;;;;;;;;;;6.60;91.00;;;;;;5061099;28;19950;-75
2021/12/03 03:25:06;;;;;;;;;;;6.60;91.00;;;;;;5061165;28;20051;-75
2021/12/03 03:27:32;;;;;;;;;;;6.40;91.00;;;;;;5060657;28;19962;-75
2021/12/03 03:29:58;;;;;;;;;;;6.30;91.20;;;;;;5061144;28;19938;-75
2021/12/03 03:32:23;;;;;;;;;;;6.40;91.40;;;;;;5060837;28;20000;-75
2021/12/03 03:34:49;;;;;;;;;;;6.40;91.50;;;;;;5061138;28;19986;-75
2021/12/03 03:37:15;;;;;;;;;;;6.40;91.50;;;;;;5060977;28;19946;-75
2021/12/03 03:39:42;;;;;;;;;;;6.50;91.50;;;;;;5060885;28;19986;-75
2021/12/03 03:42:07;;;;;;;;;;;6.50;91.40;;;;;;5042414;28;20022;-75
2021/12/03 03:44:33;;;;;;;;;;;6.50;91.30;;;;;;5063260;28;20343;-75
2021/12/03 03:47:00;;;;;;;;;;;6.50;91.30;;;;;;5080769;28;20524;-75
2021/12/03 03:49:26;;;;;;;;;;;6.50;91.40;;;;;;5080916;28;20532;-75
2021/12/03 03:51:51;;;;;;;;;;;6.50;91.40;;;;;;5080922;28;19961;-75
2021/12/03 03:54:18;;;;;;;;;;;6.50;91.50;;;;;;5080506;28;19941;-75
2021/12/03 03:56:43;;;;;;;;;;;6.40;91.50;;;;;;5072098;28;19958;-75
2021/12/03 03:59:09;;;;;;;;;;;6.40;91.60;;;;;;5064428;28;19939;-75
2021/12/03 04:01:34;;;;;;;;;;;6.40;91.50;;;;;;5056758;28;19995;-75
2021/12/03 04:04:00;;;;;;;;;;;6.40;91.50;;;;;;5063281;28;20007;-75
2021/12/03 04:06:26;;;;;;;;;;;6.40;91.50;;;;;;5060674;28;20075;-75
2021/12/03 04:08:51;;;;;;;;;;;6.40;91.60;;;;;;5075020;28;19991;-75
2021/12/03 04:11:18;;;;;;;;;;;6.40;91.60;;;;;;5080365;28;20029;-75
2021/12/03 04:13:44;;;;;;;;;;;6.40;91.60;;;;;;5080945;28;19947;-75
2021/12/03 04:16:10;;;;;;;;;;;6.40;91.70;;;;;;5068645;28;20482;-75
2021/12/03 04:18:35;;;;;;;;;;;6.40;91.70;;;;;;5060411;28;19939;-75
2021/12/03 04:21:01;;;;;;;;;;;6.40;91.60;;;;;;5060053;28;19987;-75
2021/12/03 04:23:26;;;;;;;;;;;6.40;91.60;;;;;;5060155;28;19959;-75
2021/12/03 04:25:52;;;;;;;;;;;6.40;91.70;;;;;;5060225;28;20563;-75
2021/12/03 04:28:18;;;;;;;;;;;6.40;91.50;;;;;;5059534;28;19944;-75
2021/12/03 04:30:44;;;;;;;;;;;6.40;91.60;;;;;;5060021;28;19989;-75
2021/12/03 04:33:09;;;;;;;;;;;6.20;91.60;;;;;;5070630;28;20491;-75
2021/12/03 04:35:35;;;;;;;;;;;6.20;91.70;;;;;;5080148;28;19951;-75
2021/12/03 04:38:01;;;;;;;;;;;6.20;91.80;;;;;;5080293;28;19949;-75
2021/12/03 04:40:29;;;;;;;;;;;6.20;91.80;;;;;;5079946;28;20467;-75
2021/12/03 04:42:54;;;;;;;;;;;6.30;91.80;;;;;;5061404;28;19950;-75
2021/12/03 04:45:21;;;;;;;;;;;6.40;91.50;;;;;;5080179;28;20444;-75
2021/12/03 04:47:48;;;;;;;;;;;6.40;91.40;;;;;;5079760;28;19991;-75
2021/12/03 04:50:15;;;;;;;;;;;6.40;91.40;;;;;;5062231;28;19950;-75
2021/12/03 04:52:40;;;;;;;;;;;6.30;91.40;;;;;;5079686;28;19992;-75
2021/12/03 04:55:06;;;;;;;;;;;6.20;91.50;;;;;;5061551;28;19985;-75
2021/12/03 04:57:32;;;;;;;;;;;6.20;91.60;;;;;;5063487;28;20049;-75
2021/12/03 04:59:58;;;;;;;;;;;6.20;91.60;;;;;;5059502;28;19946;-75
2021/12/03 05:02:24;;;;;;;;;;;6.20;91.60;;;;;;5072686;28;20320;-75
2021/12/03 05:04:52;;;;;;;;;;;6.10;91.80;;;;;;5079755;28;20310;-75
2021/12/03 05:10:02;;;;;;;;;;;6.10;91.70;;;;;;5059076;28;20043;-75
2021/12/03 05:12:28;;;;;;;;;;;6.00;91.90;;;;;;5059215;28;20059;-75
2021/12/03 05:14:53;;;;;;;;;;;6.00;92.00;;;;;;5059253;28;20063;-75
2021/12/03 05:17:19;;;;;;;;;;;6.00;92.00;;;;;;5059850;28;20044;-75
2021/12/03 05:19:44;;;;;;;;;;;6.10;92.00;;;;;;5059500;28;19952;-75
2021/12/03 05:22:12;;;;;;;;;;;6.00;92.00;;;;;;5065534;28;19948;-75
2021/12/03 05:24:38;;;;;;;;;;;6.10;91.80;;;;;;5073451;28;20246;-75
2021/12/03 05:27:03;;;;;;;;;;;6.10;91.80;;;;;;5071015;28;19970;-75
2021/12/03 05:29:29;;;;;;;;;;;6.10;91.60;;;;;;5044747;28;19944;-75
2021/12/03 05:31:54;;;;;;;;;;;6.10;91.60;;;;;;5061556;28;20062;-75
2021/12/03 05:34:20;;;;;;;;;;;6.10;91.60;;;;;;5083435;28;19972;-75
2021/12/03 05:36:46;;;;;;;;;;;6.10;91.60;;;;;;5083203;28;19949;-75
2021/12/03 05:39:12;;;;;;;;;;;6.10;91.60;;;;;;5076343;28;19992;-75
2021/12/03 05:41:38;;;;;;;;;;;6.10;91.60;;;;;;5063149;28;20215;-75
2021/12/03 05:44:04;;;;;;;;;;;6.10;91.60;;;;;;5062722;28;20418;-75
2021/12/03 05:46:30;;;;;;;;;;;6.10;91.50;;;;;;5062860;28;20007;-75
2021/12/03 05:48:56;;;;;;;;;;;6.20;91.40;;;;;;5062995;28;19948;-75
2021/12/03 05:51:21;;;;;;;;;;;6.20;91.10;;;;;;5062694;28;19965;-75
2021/12/03 05:53:47;;;;;;;;;;;6.20;90.80;;;;;;5061994;28;19944;-75
2021/12/03 05:56:12;;;;;;;;;;;6.30;90.50;;;;;;5044840;28;19953;-75
2021/12/03 05:58:38;;;;;;;;;;;6.30;90.40;;;;;;5060478;28;20213;-75
2021/12/03 06:01:03;;;;;;;;;;;6.20;90.40;;;;;;5057979;28;20073;-75
2021/12/03 06:03:29;;;;;;;;;;;6.20;90.50;;;;;;5043453;28;19952;-75
2021/12/03 06:05:55;;;;;;;;;;;6.10;90.70;;;;;;5060222;28;19957;-75
2021/12/03 06:08:20;;;;;;;;;;;6.10;90.90;;;;;;5054649;28;19954;-75
2021/12/03 06:10:46;;;;;;;;;;;6.10;91.00;;;;;;5060536;28;20024;-75
2021/12/03 06:13:11;;;;;;;;;;;6.10;91.20;;;;;;5061767;28;20308;-75
2021/12/03 06:15:37;;;;;;;;;;;6.10;91.20;;;;;;5059837;28;19959;-75
2021/12/03 06:18:03;;;;;;;;;;;6.10;91.40;;;;;;5059447;28;19946;-75
2021/12/03 06:20:28;;;;;;;;;;;6.10;91.40;;;;;;5060557;28;20020;-75
2021/12/03 06:22:54;;;;;;;;;;;6.10;91.50;;;;;;5061567;28;20001;-75
2021/12/03 06:25:20;;;;;;;;;;;6.20;91.50;;;;;;5061010;28;20428;-75
2021/12/03 06:27:45;;;;;;;;;;;6.20;91.50;;;;;;5058538;28;20344;-75
2021/12/03 06:30:14;;;;;;;;;;;6.20;91.30;;;;;;5041182;28;20052;-75
2021/12/03 06:32:40;;;;;;;;;;;6.30;90.90;;;;;;5056576;28;19977;-75
2021/12/03 06:35:07;;;;;;;;;;;6.40;90.40;;;;;;5042728;28;19955;-75
2021/12/03 06:37:32;;;;;;;;;;;6.40;90.10;;;;;;5058483;28;19963;-75
2021/12/03 06:39:58;;;;;;;;;;;6.40;90.00;;;;;;5055816;28;20152;-75
2021/12/03 06:42:24;;;;;;;;;;;6.40;89.90;;;;;;5047784;28;20451;-75
2021/12/03 06:44:49;;;;;;;;;;;6.40;89.90;;;;;;5046638;28;19945;-76
2021/12/03 06:47:15;;;;;;;;;;;6.40;89.90;;;;;;5060878;28;19995;-76
2021/12/03 06:49:40;;;;;;;;;;;6.30;89.90;;;;;;5054282;28;20037;-76
2021/12/03 06:52:10;;;;;;;;;;;6.20;90.10;;;;;;5057471;28;19998;-76
2021/12/03 06:54:36;;;;;;;;;;;6.20;90.30;;;;;;5031041;28;19996;-76
2021/12/03 06:57:03;;;;;;;;;;;6.20;90.40;;;;;;5053151;28;19954;-76
2021/12/03 06:59:29;;;;;;;;;;;6.10;90.50;;;;;;5048110;28;19974;-76
2021/12/03 07:01:55;;;;;;;;;;;6.10;90.60;;;;;;5035297;28;19954;-76
2021/12/03 07:04:21;;;;;;;;;;;6.10;90.80;;;;;;5050946;28;20040;-76
2021/12/03 07:06:46;;;;;;;;;;;6.10;91.00;;;;;;5053357;28;19951;-75
2021/12/03 07:09:12;;;;;;;;;;;6.10;91.10;;;;;;5051985;28;20641;-75
2021/12/03 07:11:38;;;;;;;;;;;6.00;91.00;;;;;;5052885;28;19963;-75
2021/12/03 07:14:04;;;;;;;;;;;5.90;91.00;;;;;;5057430;28;20372;-75
2021/12/03 07:16:30;;;;;;;;;;;5.80;91.20;;;;;;5053573;28;19944;-75
2021/12/03 07:18:55;;;;;;;;;;;5.70;91.30;;;;;;5053661;28;20308;-75
2021/12/03 07:21:22;;;;;;;;;;;5.70;91.60;;;;;;5035319;28;19951;-75
2021/12/03 07:23:50;;;;;;;;;;;5.70;91.70;;;;;;5048607;28;20440;-75
2021/12/03 07:26:15;;;;;;;;;;;5.60;91.90;;;;;;5040206;28;20408;-74
2021/12/03 07:28:41;;;;;;;;;;;5.60;92.20;;;;;;5053357;28;20052;-74
2021/12/03 07:31:07;;;;;;;;;;;5.50;92.50;;;;;;5029478;28;19969;-75
2021/12/03 07:33:32;;;;;;;;;;;5.50;92.70;;;;;;5052812;28;20527;-74
2021/12/03 07:35:58;;;;;;;;;;;5.50;92.70;;;;;;5034631;28;19958;-74
2021/12/03 07:38:23;;;;;;;;;;;5.50;92.80;;;;;;5046671;28;20087;-74
2021/12/03 07:40:50;;;;;;;;;;;5.50;93.00;;;;;;5045231;28;19957;-74
2021/12/03 07:43:16;;;;;;;;;;;5.50;93.00;;;;;;5046837;28;20396;-74
2021/12/03 07:45:46;;;;;;;;;;;5.50;93.70;;;;;;5050127;28;20418;-74
2021/12/03 07:48:11;;;;;;;;;;;5.50;94.10;;;;;;5044155;28;19952;-74
2021/12/03 07:50:39;;;;;;;;;;;5.60;94.20;;;;;;5049021;28;19955;-74
2021/12/03 07:53:05;;;;;;;;;;;5.60;94.00;;;;;;5053869;28;20313;-74
2021/12/03 07:55:31;;;;;;;;;;;5.60;93.90;;;;;;5051652;28;20050;-74
2021/12/03 07:57:57;;;;;;;;;;;5.70;93.80;;;;;;5030940;28;20215;-74
2021/12/03 08:00:22;;;;;;;;;;;5.70;93.70;;;;;;5044700;28;20037;-74
2021/12/03 08:02:48;;;;;;;;;;;5.80;93.60;;;;;;5048413;28;19954;-74
2021/12/03 08:05:14;;;;;;;;;;;5.80;93.50;;;;;;5046901;28;20399;-74
2021/12/03 08:07:40;;;;;;;;;;;5.80;93.30;;;;;;5041584;28;19951;-74
2021/12/03 08:10:06;;;;;;;;;;;5.80;93.20;;;;;;5049403;28;19990;-74
2021/12/03 08:12:32;;;;;;;;;;;5.80;93.00;;;;;;5036489;28;20037;-74
2021/12/03 08:14:57;;;;;;;;;;;5.70;93.20;;;;;;5053233;28;20030;-74
2021/12/03 08:17:23;;;;;;;;;;;5.70;93.40;;;;;;5029247;28;20006;-74
2021/12/03 08:19:48;;;;;;;;;;;5.80;93.60;;;;;;5048145;28;20294;-74
2021/12/03 08:22:14;;;;;;;;;;;5.80;93.60;;;;;;5030852;28;20761;-75
2021/12/03 08:24:39;;;;;;;;;;;5.90;93.40;;;;;;5046426;28;20446;-75
2021/12/03 08:27:06;;;;;;;;;;;5.90;93.30;;;;;;5045743;28;19951;-74
2021/12/03 08:29:32;;;;;;;;;;;6.00;93.20;;;;;;5045304;28;19955;-75
2021/12/03 08:31:57;;;;;;;;;;;6.10;93.10;;;;;;5026805;28;20442;-75
2021/12/03 08:34:23;;;;;;;;;;;6.20;93.20;;;;;;5046608;28;20452;-75
2021/12/03 08:36:49;;;;;;;;;;;6.40;93.40;;;;;;5047635;28;19956;-75
2021/12/03 08:39:14;;;;;;;;;;;6.40;93.40;;;;;;5048811;28;19953;-75
2021/12/03 08:41:40;;;;;;;;;;;6.60;93.40;;;;;;5031966;28;19949;-75
2021/12/03 08:44:06;;;;;;;;;;;6.70;93.40;;;;;;5045985;28;19955;-75
2021/12/03 08:46:38;;;;;;;;;;;6.90;93.10;;;;;;5048562;28;19989;-75
2021/12/03 08:49:12;;;;;;;;;;;7.00;91.60;;;;;;5049009;28;20394;-75
2021/12/03 08:56:53;;;;;;;;;;;7.60;90.60;;;;;;5046917;28;20378;-75
2021/12/03 08:59:19;;;;;;;;;;;7.80;90.70;;;;;;5044270;28;19979;-77
2021/12/03 09:01:45;;;;;;;;;;;8.00;90.20;;;;;;5043923;28;19955;-76
2021/12/03 09:04:13;;;;;;;;;;;8.10;89.40;;;;;;5040904;28;19954;-75
2021/12/03 09:06:38;;;;;;;;;;;8.20;88.80;;;;;;5045784;28;19973;-75
2021/12/03 09:09:06;;;;;;;;;;;8.30;86.90;;;;;;5042500;28;20756;-75
2021/12/03 09:11:33;;;;;;;;;;;8.30;87.30;;;;;;5050135;28;20014;-75
2021/12/03 09:14:02;;;;;;;;;;;8.40;86.30;;;;;;5050934;28;20414;-75
2021/12/03 09:16:27;;;;;;;;;;;8.30;86.10;;;;;;5052460;28;20218;-75
2021/12/03 09:18:54;;;;;;;;;;;8.40;86.40;;;;;;5046975;28;19956;-75
2021/12/03 09:26:30;;;;;;;;;;;8.50;85.70;;;;;;5048218;28;19982;-75
2021/12/03 09:29:04;;;;;;;;;;;8.60;85.10;;;;;;5046897;28;20008;-75
2021/12/03 09:31:30;;;;;;;;;;;8.60;85.10;;;;;;5047401;28;19975;-75
2021/12/03 09:33:56;;;;;;;;;;;8.50;85.40;;;;;;5042672;28;19949;-75
2021/12/03 09:36:22;;;;;;;;;;;8.60;85.30;;;;;;5046237;28;19959;-75
2021/12/03 09:38:48;;;;;;;;;;;8.60;85.30;;;;;;5055184;22;19979;-75
2021/12/03 09:41:15;;;;;;;;;;;8.50;85.50;;;;;;5046276;28;19974;-74
2021/12/03 09:43:43;;;;;;;;;;;8.70;85.10;;;;;;5046506;28;20047;-75
2021/12/03 09:51:17;;;;;;;;;;;8.70;84.50;;;;;;5050519;28;20768;-73
2021/12/03 09:56:12;;;;;;;;;;;8.90;84.00;;;;;;5046223;28;19953;-73
2021/12/03 09:59:58;;;;;;;;;;;9.00;83.40;;;;;;5041130;28;20034;-73
2021/12/03 10:15:02;;;;;;;;;;;9.40;81.20;;;;;;5050235;28;19956;-73
2021/12/03 10:17:41;;;;;;;;;;;9.40;80.90;;;;;;5034737;28;19951;-73
2021/12/03 10:23:48;;;;;;;;;;;9.50;79.80;;;;;;5055386;28;19991;-73
2021/12/03 10:26:24;;;;;;;;;;;9.50;79.90;;;;;;5042087;28;19953;-73
2021/12/03 10:36:25;;;;;;;;;;;10.10;79.20;;;;;;5040621;28;20459;-74
2021/12/03 10:39:17;;;;;;;;;;;10.30;78.70;;;;;;5025423;28;20015;-74
2021/12/03 10:57:43;;;;;;;;;;;11.30;71.80;;;;;;5035120;28;20005;-75
2021/12/03 11:15:08;;;;;;;;;;;12.10;71.50;;;;;;5039746;28;19958;-75
2021/12/03 11:20:45;;;;;;;;;;;13.00;67.60;;;;;;5034646;28;20009;-75
2021/12/03 11:34:13;;;;;;;;;;;13.50;62.10;;;;;;5022125;28;19953;-75
2021/12/03 11:58:41;;;;;;;;;;;14.00;56.20;;;;;;5024645;28;20313;-75
2021/12/03 13:08:54;;;;;;;;;;;20.60;38.60;;;;;;5028158;28;19988;-75
2021/12/03 13:34:09;;;;;;;;;;;20.50;36.80;;;;;;5010541;28;20222;-86
2021/12/03 14:11:59;;;;;;;;;;;20.50;33.00;;;;;;5032070;28;19942;-75
2021/12/03 14:39:10;;;;;;;;;;;20.00;33.10;;;;;;5037248;28;19986;-75
2021/12/03 14:50:10;;;;;;;;;;;18.10;37.10;;;;;;5041477;28;20412;-75
2021/12/03 14:52:58;;;;;;;;;;;18.60;36.50;;;;;;5038603;28;20275;-75
2021/12/03 14:55:25;;;;;;;;;;;18.40;37.10;;;;;;5040330;28;19983;-75
2021/12/03 14:57:59;;;;;;;;;;;18.00;37.70;;;;;;5025820;28;20408;-76
2021/12/03 15:00:30;;;;;;;;;;;17.60;38.20;;;;;;5032367;28;19955;-76
2021/12/03 15:08:34;;;;;;;;;;;16.90;39.90;;;;;;5026132;28;19964;-75
2021/12/03 15:19:09;;;;;;;;;;;13.80;47.20;;;;;;5043630;28;19946;-74
2021/12/03 15:32:10;;;;;;;;;;;11.10;55.70;;;;;;5039338;28;20579;-73
2021/12/03 15:40:21;;;;;;;;;;;10.20;59.40;;;;;;5034202;28;20470;-74
2021/12/03 16:04:40;;;;;;;;;;;8.40;68.60;;;;;;5038628;28;19992;-75
2021/12/03 16:26:00;;;;;;;;;;;7.90;66.80;;;;;;5051570;28;19981;-74
2021/12/03 16:52:21;;;;;;;;;;;6.60;79.30;;;;;;5044621;28;20055;-74
2021/12/03 16:54:54;;;;;;;;;;;6.70;79.30;;;;;;5022452;28;19952;-73
2021/12/03 16:57:22;;;;;;;;;;;6.70;78.30;;;;;;5048280;28;20413;-73
2021/12/03 16:59:49;;;;;;;;;;;6.70;77.70;;;;;;5024863;28;19949;-74
2021/12/03 17:02:20;;;;;;;;;;;6.70;77.80;;;;;;5033308;28;19964;-74
2021/12/03 17:05:00;;;;;;;;;;;6.90;77.00;;;;;;5037795;28;19956;-73
2021/12/03 17:13:07;;;;;;;;;;;6.90;77.20;;;;;;5037921;28;19983;-73
2021/12/03 17:31:48;;;;;;;;;;;7.00;75.60;;;;;;5042132;28;19956;-73
2021/12/03 17:47:52;;;;;;;;;;;7.20;78.20;;;;;;5062832;28;19941;-73
2021/12/03 17:58:00;;;;;;;;;;;7.30;73.70;;;;;;5060598;28;19999;-74
2021/12/03 18:01:17;;;;;;;;;;;7.00;74.30;;;;;;5053268;28;19953;-74
2021/12/03 18:08:55;;;;;;;;;;;5.70;79.30;;;;;;5041920;28;19941;-73
2021/12/03 18:56:20;;;;;;;;;;;6.20;81.80;;;;;;5062161;28;20406;-75
2021/12/03 18:59:08;;;;;;;;;;;6.00;81.70;;;;;;5062162;28;19978;-74
2021/12/03 19:01:34;;;;;;;;;;;5.70;82.30;;;;;;5044396;28;20486;-74
2021/12/03 19:04:13;;;;;;;;;;;5.40;83.40;;;;;;5043455;28;20026;-74
2021/12/03 19:09:12;;;;;;;;;;;5.30;84.30;;;;;;5058106;28;19993;-74
2021/12/03 19:12:03;;;;;;;;;;;5.40;84.60;;;;;;5062170;28;19973;-74
2021/12/03 19:14:23;;;;;;;;;;;5.50;84.50;;;;;;5053822;28;20421;-74
2021/12/03 19:16:49;;;;;;;;;;;5.60;84.10;;;;;;5060988;28;20709;-74
2021/12/03 19:19:16;;;;;;;;;;;5.70;83.90;;;;;;5061503;28;20086;-75
2021/12/03 19:21:43;;;;;;;;;;;5.60;83.80;;;;;;5061834;28;19948;-74
2021/12/03 19:24:10;;;;;;;;;;;5.60;84.00;;;;;;5051534;28;20458;-74
2021/12/03 19:26:43;;;;;;;;;;;5.50;84.30;;;;;;5060445;28;19959;-74
2021/12/03 19:29:11;;;;;;;;;;;5.70;84.20;;;;;;5049320;28;20457;-74
2021/12/03 19:31:37;;;;;;;;;;;5.90;83.30;;;;;;5061544;28;19969;-74
2021/12/03 19:34:03;;;;;;;;;;;5.90;82.90;;;;;;5053697;28;20380;-74
2021/12/03 19:36:30;;;;;;;;;;;5.90;82.50;;;;;;5061073;28;19962;-75
2021/12/03 19:38:57;;;;;;;;;;;5.90;82.40;;;;;;5060335;28;20313;-75
2021/12/03 19:43:57;;;;;;;;;;;6.10;81.20;;;;;;5061028;28;19947;-75
2021/12/03 19:46:32;;;;;;;;;;;6.20;80.30;;;;;;5061131;28;19954;-75
2021/12/03 19:49:09;;;;;;;;;;;6.10;79.60;;;;;;5061402;28;19950;-75
2021/12/03 19:51:41;;;;;;;;;;;6.00;79.20;;;;;;5060228;28;19974;-75
2021/12/03 19:54:06;;;;;;;;;;;5.90;79.40;;;;;;5049928;28;19952;-75
2021/12/03 19:56:33;;;;;;;;;;;5.90;80.10;;;;;;5048894;28;19948;-75
2021/12/03 19:58:59;;;;;;;;;;;6.00;79.40;;;;;;5044194;28;19957;-75
2021/12/03 20:01:25;;;;;;;;;;;6.00;77.10;;;;;;5041731;28;19945;-75
2021/12/03 20:03:53;;;;;;;;;;;6.00;76.30;;;;;;5041217;28;19974;-75
2021/12/03 20:06:20;;;;;;;;;;;6.00;76.20;;;;;;5022372;28;19999;-75
2021/12/03 20:08:46;;;;;;;;;;;5.80;76.40;;;;;;5036095;28;20035;-75
2021/12/03 20:11:12;;;;;;;;;;;5.70;76.80;;;;;;5040797;28;20000;-75
2021/12/03 20:13:45;;;;;;;;;;;5.70;77.00;;;;;;5040594;28;19960;-75
2021/12/03 20:17:01;;;;;;;;;;;5.70;77.50;;;;;;5040551;28;19947;-75
2021/12/03 20:19:04;;;;;;;;;;;5.60;77.70;;;;;;5045853;28;19951;-75
2021/12/03 20:21:31;;;;;;;;;;;5.40;78.30;;;;;;5060817;28;19948;-75
2021/12/03 20:26:50;;;;;;;;;;;5.40;78.30;;;;;;5049708;28;20699;-75
2021/12/03 20:31:46;;;;;;;;;;;5.30;77.20;;;;;;5040082;28;20430;-75
2021/12/03 20:39:32;;;;;;;;;;;5.30;77.50;;;;;;5059549;28;19975;-75
2021/12/03 20:42:55;;;;;;;;;;;5.30;77.50;;;;;;5060071;28;19993;-75
2021/12/03 20:52:34;;;;;;;;;;;5.40;77.50;;;;;;5059465;28;19961;-75
2021/12/03 21:11:03;;;;;;;;;;;6.00;72.60;;;;;;5059901;28;19947;-75
2021/12/03 21:13:36;;;;;;;;;;;6.10;72.50;;;;;;5058523;28;19977;-75
2021/12/03 21:18:44;;;;;;;;;;;6.20;71.60;;;;;;5039810;28;19980;-75
2021/12/03 21:21:13;;;;;;;;;;;6.20;71.40;;;;;;5039894;28;20474;-75
2021/12/03 21:23:43;;;;;;;;;;;6.30;71.00;;;;;;5058605;28;19998;-75
2021/12/03 21:26:14;;;;;;;;;;;6.30;72.70;;;;;;5058339;28;20025;-75
2021/12/03 21:29:09;;;;;;;;;;;6.10;73.80;;;;;;5059862;28;19952;-75
2021/12/03 21:42:10;;;;;;;;;;;6.20;71.50;;;;;;5040133;28;20404;-75
2021/12/03 21:44:36;;;;;;;;;;;6.20;71.80;;;;;;5039927;28;20063;-75
2021/12/03 21:47:02;;;;;;;;;;;6.10;72.00;;;;;;5039850;28;19942;-75
2021/12/03 21:49:28;;;;;;;;;;;6.20;71.90;;;;;;5022313;28;19993;-75
2021/12/03 21:51:54;;;;;;;;;;;6.30;71.40;;;;;;5039396;28;20479;-75
2021/12/03 21:54:20;;;;;;;;;;;6.40;70.90;;;;;;5039982;28;20008;-75
2021/12/03 21:56:47;;;;;;;;;;;6.40;70.70;;;;;;5039620;28;19994;-75
2021/12/03 21:59:13;;;;;;;;;;;6.40;70.90;;;;;;5046246;28;20075;-75
2021/12/03 22:01:40;;;;;;;;;;;6.40;70.50;;;;;;5059969;28;19951;-75
2021/12/03 22:04:05;;;;;;;;;;;6.50;70.00;;;;;;5063576;28;19947;-75
2021/12/03 22:06:32;;;;;;;;;;;6.50;69.90;;;;;;5061246;28;19948;-75
2021/12/03 22:08:58;;;;;;;;;;;6.50;70.00;;;;;;5058802;28;20490;-75
2021/12/03 22:11:24;;;;;;;;;;;6.40;70.40;;;;;;5048701;28;19940;-75
2021/12/03 22:13:50;;;;;;;;;;;6.40;70.80;;;;;;5063336;28;19956;-73
2021/12/03 22:16:16;;;;;;;;;;;6.40;70.90;;;;;;5063256;28;20524;-75
2021/12/03 22:18:42;;;;;;;;;;;6.40;70.90;;;;;;5063317;28;19948;-75
2021/12/03 22:21:08;;;;;;;;;;;6.40;70.70;;;;;;5061893;28;20000;-75
2021/12/03 22:23:34;;;;;;;;;;;6.50;70.50;;;;;;5061786;28;19946;-75
2021/12/03 22:26:00;;;;;;;;;;;6.50;70.40;;;;;;5062585;28;19972;-75
2021/12/03 22:28:26;;;;;;;;;;;6.50;70.50;;;;;;5062724;28;20110;-75
2021/12/03 22:30:52;;;;;;;;;;;6.50;70.40;;;;;;5045636;28;20138;-75
2021/12/03 22:33:20;;;;;;;;;;;6.60;70.10;;;;;;5043270;28;19999;-75
2021/12/03 22:35:46;;;;;;;;;;;6.60;70.10;;;;;;5043469;28;20268;-75
2021/12/03 22:38:12;;;;;;;;;;;6.50;69.80;;;;;;5043220;28;20528;-75
2021/12/03 22:40:39;;;;;;;;;;;6.50;69.70;;;;;;5043120;28;19966;-75
2021/12/03 22:43:10;;;;;;;;;;;6.60;69.50;;;;;;5043021;28;19943;-75
2021/12/03 22:51:41;;;;;;;;;;;6.60;69.30;;;;;;5039518;28;19946;-75
2021/12/03 22:53:55;;;;;;;;;;;6.60;70.20;;;;;;5062724;28;20382;-75
2021/12/03 22:56:21;;;;;;;;;;;6.50;70.40;;;;;;5061718;28;20468;-75
2021/12/03 22:58:46;;;;;;;;;;;6.40;70.30;;;;;;5063177;28;19947;-75
2021/12/03 23:01:18;;;;;;;;;;;6.40;70.70;;;;;;5063289;28;19958;-75
2021/12/03 23:03:44;;;;;;;;;;;6.40;70.70;;;;;;5044779;28;20107;-75
2021/12/03 23:06:10;;;;;;;;;;;6.40;70.10;;;;;;5062827;28;20271;-75